メインページ
METAR-TAF:

METAR-TAF

空港 :

ラルナカ, キプロス

ラルナカ国際空港

緯度: 34-53N, 経度: 033-38E, 海抜: 2m

現時点の気象観測

当レポートは35分前の04:30(UTC)に作成
北西の風 4kt
気温 18°C
湿度 64%
気圧 1015 hPa
視程10km以上
高度1500ftの雲はほとんどない

METAR: LCLK 210430Z 31004KT 9999 FEW015 18/11 Q1015 NOSIG

時間: 08:05 (05:05 UTC)

予報

当レポートは5時間35分前の23:30(UTC)に作成
予報は21日の 00時(UTC)から 21日の 24時(UTC)まで有効
北/北西の風 5kt
視程10km以上
高度3000ftの雲はほとんどない
21日の 09時(UTC)から 21日の 12時(UTC)まで徐々に
南/南西の風 10kt
21日の 15時(UTC)から 21日の 18時(UTC)まで徐々に
北/北西の風 5kt

TAF: LCLK 202330Z 2100/2124 33005KT 9999 FEW030 BECMG 2109/2112 20010KT BECMG 2115/2118 33005KT

4,000以上の空港の気象観測と天気予報(METAR報とTAF報)

利用可能な観測所は地図上に黄色い丸と赤い丸で示す。

丸の上にカーソルを重ねると観測所名を参照できる。

次にクリックすると気象観測と天気予報を参照できる。

マップの切り替え:黒色「×」印の緑ボタンをクリックして拡大、「-」印の緑ボタンをクリックして縮小、緑色の三角印をクリックして隣りの地図に切り替え


METAR-TAF: